Time;durP1;ratioP1;P1;durP2;ratioP2;P2;SDS_P1;SDS_P2;PMS_P1;PMS_P2;Temp;Humidity;BMP_temperature;BMP_pressure;BME280_temperature;BME280_humidity;BME280_pressure;Samples;Min_cycle;Max_cycle;Signal;HPM_P1;HPM_P2
2023/03/08 00:01:13;;;;;;;7.15;2.75;;;4.10;99.90;;;;;;4997265;28;20223;-79
2023/03/08 00:03:40;;;;;;;3.40;2.15;;;4.20;99.90;;;;;;4975771;28;20245;-78
2023/03/08 00:06:07;;;;;;;3.13;2.00;;;4.20;99.90;;;;;;4975331;28;20179;-79
2023/03/08 00:08:32;;;;;;;4.60;2.42;;;4.20;99.90;;;;;;4998834;28;20175;-79
2023/03/08 00:10:58;;;;;;;2.40;1.73;;;4.20;99.90;;;;;;5004931;28;20175;-79
2023/03/08 00:13:24;;;;;;;3.97;2.70;;;4.20;99.90;;;;;;5003845;28;20375;-79
2023/03/08 00:15:51;;;;;;;3.60;2.40;;;4.20;99.90;;;;;;5003775;28;20582;-80
2023/03/08 00:18:16;;;;;;;3.22;2.30;;;4.20;99.90;;;;;;5005753;28;20182;-79
2023/03/08 00:20:42;;;;;;;3.93;2.67;;;4.20;99.90;;;;;;5001400;28;20227;-80
2023/03/08 00:23:08;;;;;;;2.50;1.80;;;4.20;99.90;;;;;;5018063;28;20171;-80
2023/03/08 00:25:34;;;;;;;3.00;2.17;;;4.20;99.90;;;;;;5001550;28;20581;-79
2023/03/08 00:28:00;;;;;;;3.43;2.60;;;4.30;99.90;;;;;;5014215;28;20245;-80
2023/03/08 00:30:29;;;;;;;3.08;1.90;;;4.30;99.90;;;;;;5017855;28;20195;-80
2023/03/08 00:32:54;;;;;;;3.10;1.87;;;4.30;99.90;;;;;;5014729;28;20181;-79
2023/03/08 00:35:20;;;;;;;3.30;1.80;;;4.30;99.90;;;;;;5000499;28;20257;-79
2023/03/08 00:37:46;;;;;;;3.23;1.83;;;4.30;99.90;;;;;;4999279;28;20654;-79
2023/03/08 00:40:22;;;;;;;4.88;2.10;;;4.30;99.90;;;;;;4998805;28;20667;-79
2023/03/08 00:42:48;;;;;;;2.50;1.67;;;4.30;99.90;;;;;;4996157;28;20179;-79
2023/03/08 00:45:14;;;;;;;3.40;1.43;;;4.30;99.90;;;;;;4993154;28;20208;-79
2023/03/08 00:47:39;;;;;;;4.30;2.63;;;4.30;99.90;;;;;;4992088;28;20229;-79
2023/03/08 00:50:06;;;;;;;2.47;1.50;;;4.30;99.90;;;;;;4991382;28;20199;-79
2023/03/08 00:52:31;;;;;;;2.88;1.88;;;4.30;99.90;;;;;;4991264;28;20214;-79
2023/03/08 00:54:57;;;;;;;3.30;2.27;;;4.30;99.90;;;;;;5012599;28;20870;-80
2023/03/08 00:57:23;;;;;;;3.15;1.70;;;4.20;99.90;;;;;;5013940;28;20186;-80
2023/03/08 00:59:49;;;;;;;2.43;1.60;;;4.20;99.90;;;;;;5013849;28;20692;-80
2023/03/08 01:02:15;;;;;;;4.20;2.37;;;4.20;99.90;;;;;;5026095;28;20198;-80
2023/03/08 01:04:41;;;;;;;3.03;2.10;;;4.20;99.90;;;;;;5010630;28;20178;-79
2023/03/08 01:07:06;;;;;;;3.70;2.10;;;4.20;99.90;;;;;;5010657;28;20174;-80
2023/03/08 01:09:32;;;;;;;5.70;2.80;;;4.20;99.90;;;;;;4998268;28;20241;-80
2023/03/08 01:11:58;;;;;;;3.77;2.23;;;4.20;99.90;;;;;;4974053;28;20179;-80
2023/03/08 01:14:23;;;;;;;3.40;2.07;;;4.20;99.90;;;;;;4990764;28;20179;-79
2023/03/08 01:16:49;;;;;;;4.00;3.20;;;4.20;99.90;;;;;;4990770;28;20174;-80
2023/03/08 01:19:15;;;;;;;3.30;2.60;;;4.20;99.90;;;;;;4991451;28;20203;-80
2023/03/08 01:21:41;;;;;;;2.22;1.40;;;4.20;99.90;;;;;;4996920;28;20206;-80
2023/03/08 01:24:06;;;;;;;3.30;2.30;;;4.20;99.90;;;;;;4990329;28;20207;-80
2023/03/08 01:26:32;;;;;;;3.47;2.30;;;4.20;99.90;;;;;;4991983;28;20620;-80
2023/03/08 01:28:59;;;;;;;3.57;2.77;;;4.20;99.90;;;;;;4990201;28;20682;-79
2023/03/08 01:31:28;;;;;;;2.80;2.47;;;4.20;99.90;;;;;;4974478;28;20583;-79
2023/03/08 01:33:56;;;;;;;3.80;2.60;;;4.20;99.90;;;;;;4974492;28;20183;-79
2023/03/08 01:36:23;;;;;;;3.05;2.17;;;4.20;99.90;;;;;;5006711;28;20256;-79
2023/03/08 01:38:50;;;;;;;2.50;1.90;;;4.20;99.90;;;;;;4974132;28;20198;-79
2023/03/08 01:41:22;;;;;;;4.55;3.00;;;4.20;99.90;;;;;;4973766;28;20205;-79
2023/03/08 01:43:49;;;;;;;3.90;2.38;;;4.20;99.90;;;;;;4993872;28;20167;-79
2023/03/08 01:46:26;;;;;;;4.40;2.53;;;4.30;99.90;;;;;;4993902;28;20175;-79
2023/03/08 01:49:01;;;;;;;4.30;2.88;;;4.20;99.90;;;;;;4978498;28;20201;-78
2023/03/08 01:51:45;;;;;;;4.63;3.25;;;4.20;99.90;;;;;;5011566;28;20182;-79
2023/03/08 01:54:19;;;;;;;5.50;3.83;;;4.20;99.90;;;;;;5033895;28;20170;-79
2023/03/08 01:56:48;;;;;;;4.18;3.13;;;4.20;99.90;;;;;;5016821;28;20177;-79
2023/03/08 01:59:14;;;;;;;8.35;4.05;;;4.20;99.90;;;;;;5017267;28;20219;-79
2023/03/08 02:01:40;;;;;;;4.47;3.65;;;4.10;99.90;;;;;;5025586;28;20198;-79
2023/03/08 02:04:08;;;;;;;7.53;2.97;;;4.00;99.90;;;;;;5004868;28;20677;-79
2023/03/08 02:06:35;;;;;;;6.60;4.00;;;4.00;99.90;;;;;;5021742;28;20589;-79
2023/03/08 02:09:03;;;;;;;4.45;2.85;;;3.90;99.90;;;;;;5005154;28;20187;-79
2023/03/08 02:11:32;;;;;;;5.15;3.85;;;3.90;99.90;;;;;;4994924;28;20182;-79
2023/03/08 02:13:59;;;;;;;6.82;3.63;;;3.90;99.90;;;;;;4985093;28;20187;-79
2023/03/08 02:16:25;;;;;;;6.32;3.70;;;3.90;99.90;;;;;;4994696;28;20174;-79
2023/03/08 02:19:01;;;;;;;6.80;3.97;;;3.80;99.90;;;;;;4980230;28;20206;-79
2023/03/08 02:21:28;;;;;;;6.60;4.10;;;3.80;99.90;;;;;;5005153;28;20208;-79
2023/03/08 02:23:55;;;;;;;7.65;3.80;;;3.70;99.90;;;;;;5013287;28;20662;-78
2023/03/08 02:26:21;;;;;;;4.60;2.60;;;3.70;99.90;;;;;;5013051;28;20178;-79
2023/03/08 02:28:47;;;;;;;4.78;2.75;;;3.70;99.90;;;;;;4997175;28;20182;-79
2023/03/08 02:31:13;;;;;;;4.13;3.40;;;3.60;99.90;;;;;;5019014;28;20875;-79
2023/03/08 02:33:39;;;;;;;6.35;3.38;;;3.60;99.90;;;;;;4996696;28;20581;-79
2023/03/08 02:36:08;;;;;;;4.90;3.30;;;3.60;99.90;;;;;;5012596;28;20186;-79
2023/03/08 02:38:34;;;;;;;3.88;2.78;;;3.70;99.90;;;;;;4996919;28;20179;-79
2023/03/08 02:41:00;;;;;;;6.00;3.03;;;3.70;99.90;;;;;;5012681;28;20608;-79
2023/03/08 02:43:26;;;;;;;6.78;3.30;;;3.70;99.90;;;;;;5012760;28;20182;-79
2023/03/08 02:45:52;;;;;;;3.40;2.80;;;3.70;99.90;;;;;;5013103;28;20171;-79
2023/03/08 02:48:18;;;;;;;5.50;4.07;;;3.70;99.90;;;;;;4982642;28;20639;-79
2023/03/08 02:50:46;;;;;;;4.68;3.22;;;3.60;99.90;;;;;;4993575;28;20294;-79
2023/03/08 02:53:11;;;;;;;5.40;3.80;;;3.60;99.90;;;;;;4992555;28;20183;-79
2023/03/08 02:55:38;;;;;;;5.17;3.47;;;3.60;99.90;;;;;;4994181;28;20185;-79
2023/03/08 02:58:09;;;;;;;4.00;3.15;;;3.50;99.90;;;;;;4996078;28;20621;-79
2023/03/08 03:00:35;;;;;;;4.68;3.10;;;3.50;99.90;;;;;;4994112;28;20616;-79
2023/03/08 03:03:01;;;;;;;8.80;3.88;;;3.60;99.90;;;;;;4993767;28;20507;-80
2023/03/08 03:05:27;;;;;;;5.87;3.63;;;3.50;99.90;;;;;;4992923;28;20170;-80
2023/03/08 03:07:57;;;;;;;5.97;3.65;;;3.50;99.90;;;;;;4993303;28;20574;-80
2023/03/08 03:10:23;;;;;;;3.50;2.83;;;3.50;99.90;;;;;;4976442;28;20191;-80
2023/03/08 03:12:49;;;;;;;5.35;3.70;;;3.50;99.90;;;;;;4992480;28;20229;-80
2023/03/08 03:15:18;;;;;;;6.25;3.40;;;3.60;99.90;;;;;;4992650;28;20175;-80
2023/03/08 03:17:48;;;;;;;5.15;4.15;;;3.60;99.90;;;;;;4992765;28;20185;-80
2023/03/08 03:20:14;;;;;;;6.47;4.13;;;3.50;99.90;;;;;;4975693;28;20282;-80
2023/03/08 03:22:40;;;;;;;3.88;3.13;;;3.60;99.90;;;;;;5007095;28;20292;-79
2023/03/08 03:25:07;;;;;;;4.70;4.03;;;3.50;99.90;;;;;;5031944;28;20170;-79
2023/03/08 03:27:33;;;;;;;6.60;3.28;;;3.60;99.90;;;;;;5015277;28;20176;-79
2023/03/08 03:29:59;;;;;;;6.27;3.93;;;3.60;99.90;;;;;;5015591;28;20549;-78
2023/03/08 03:32:25;;;;;;;5.43;3.60;;;3.60;99.90;;;;;;5031157;28;20792;-78
2023/03/08 03:34:52;;;;;;;6.22;3.88;;;3.60;99.90;;;;;;4999665;28;20223;-78
2023/03/08 03:37:20;;;;;;;3.92;3.47;;;3.70;99.90;;;;;;5016208;28;20289;-78
2023/03/08 03:39:46;;;;;;;3.77;3.10;;;3.80;99.90;;;;;;5031673;28;20225;-79
2023/03/08 03:42:16;;;;;;;6.03;3.65;;;3.80;99.90;;;;;;5031045;28;20624;-79
2023/03/08 03:44:49;;;;;;;5.20;3.25;;;3.80;99.90;;;;;;5031869;28;20526;-79
2023/03/08 03:47:19;;;;;;;4.80;2.97;;;3.70;99.90;;;;;;5015346;28;20177;-79
2023/03/08 03:49:47;;;;;;;4.07;3.40;;;3.70;99.90;;;;;;5031097;28;20208;-79
2023/03/08 03:52:14;;;;;;;5.63;3.40;;;3.70;99.90;;;;;;5020982;28;20178;-79
2023/03/08 03:54:47;;;;;;;5.78;4.55;;;3.70;99.90;;;;;;4999617;28;20181;-79
2023/03/08 03:57:13;;;;;;;4.13;3.50;;;3.70;99.90;;;;;;5031618;28;20181;-79
2023/03/08 03:59:41;;;;;;;5.43;3.22;;;3.60;99.90;;;;;;5014494;28;20190;-79
2023/03/08 04:02:06;;;;;;;5.30;3.90;;;3.60;99.90;;;;;;5030930;28;20209;-79
2023/03/08 04:04:43;;;;;;;4.95;3.55;;;3.60;99.90;;;;;;5014750;28;20173;-79
2023/03/08 04:07:12;;;;;;;5.22;4.07;;;3.60;99.90;;;;;;5013947;28;20170;-79
2023/03/08 04:09:42;;;;;;;5.15;3.70;;;3.60;99.90;;;;;;4998776;28;20186;-80
2023/03/08 04:12:13;;;;;;;5.18;3.85;;;3.60;99.90;;;;;;5014257;28;20174;-79
2023/03/08 04:14:39;;;;;;;5.70;3.90;;;3.60;99.90;;;;;;5035800;28;20601;-80
2023/03/08 04:17:07;;;;;;;7.32;5.10;;;3.60;99.90;;;;;;5024956;28;20218;-80
2023/03/08 04:19:53;;;;;;;6.15;4.50;;;3.50;99.90;;;;;;4993051;28;20240;-80
2023/03/08 04:22:20;;;;;;;6.03;4.68;;;3.50;99.90;;;;;;4983301;28;20199;-80
2023/03/08 04:24:51;;;;;;;6.10;4.65;;;3.50;99.90;;;;;;4975556;28;20178;-80
2023/03/08 04:27:22;;;;;;;8.45;4.82;;;3.50;99.90;;;;;;4991237;28;20262;-80
2023/03/08 04:29:48;;;;;;;7.07;4.83;;;3.50;99.90;;;;;;4991293;28;20281;-80
2023/03/08 04:32:15;;;;;;;6.68;4.70;;;3.50;99.90;;;;;;4974365;28;20197;-80
2023/03/08 04:34:46;;;;;;;6.57;4.82;;;3.50;99.90;;;;;;4991469;28;20689;-81
2023/03/08 04:37:15;;;;;;;5.97;4.53;;;3.50;99.90;;;;;;4974901;28;20238;-81
2023/03/08 04:39:46;;;;;;;6.07;4.50;;;3.40;99.90;;;;;;4990672;28;20297;-81
2023/03/08 04:42:12;;;;;;;7.70;4.95;;;3.40;99.90;;;;;;4990920;28;20546;-81
2023/03/08 04:44:38;;;;;;;6.77;4.30;;;3.40;99.90;;;;;;4990774;28;20167;-81
2023/03/08 04:47:05;;;;;;;7.32;4.60;;;3.40;99.90;;;;;;4975005;28;20578;-81
2023/03/08 04:49:36;;;;;;;5.10;4.18;;;3.40;99.90;;;;;;4974819;28;20237;-81
2023/03/08 04:52:03;;;;;;;6.50;4.80;;;3.30;99.90;;;;;;4977655;28;20174;-81
2023/03/08 04:54:32;;;;;;;6.07;4.43;;;3.30;99.90;;;;;;4990608;28;20214;-81
2023/03/08 04:57:02;;;;;;;7.30;4.82;;;3.30;99.90;;;;;;4990801;28;20179;-80
2023/03/08 04:59:29;;;;;;;5.20;4.53;;;3.30;99.90;;;;;;4974319;28;20198;-81
2023/03/08 05:01:57;;;;;;;7.22;5.10;;;3.30;99.90;;;;;;4990301;28;20198;-81
2023/03/08 05:04:23;;;;;;;6.03;4.23;;;3.30;99.90;;;;;;4990288;28;20173;-81
2023/03/08 05:06:51;;;;;;;6.60;4.43;;;3.30;99.90;;;;;;4991550;28;21159;-80
2023/03/08 05:09:21;;;;;;;6.57;4.93;;;3.30;99.90;;;;;;4975241;28;20277;-81
2023/03/08 05:11:49;;;;;;;8.32;5.47;;;3.30;99.90;;;;;;4973530;28;20177;-81
2023/03/08 05:14:15;;;;;;;6.73;4.77;;;3.30;99.90;;;;;;4993741;28;20222;-81
2023/03/08 05:16:41;;;;;;;6.30;4.63;;;3.20;99.90;;;;;;5029494;28;20630;-81
2023/03/08 05:19:07;;;;;;;6.15;5.03;;;3.20;99.90;;;;;;5029557;28;20618;-81
2023/03/08 05:21:41;;;;;;;7.90;5.00;;;3.20;99.90;;;;;;4993345;28;20610;-81
2023/03/08 05:24:07;;;;;;;5.30;4.07;;;3.20;99.90;;;;;;4990517;28;20171;-81
2023/03/08 05:26:35;;;;;;;6.78;5.45;;;3.20;99.90;;;;;;4990751;28;20972;-81
2023/03/08 05:29:02;;;;;;;7.45;4.95;;;3.20;99.90;;;;;;4995255;28;20191;-81
2023/03/08 05:31:29;;;;;;;10.40;7.03;;;3.10;99.90;;;;;;4991885;28;20206;-81
2023/03/08 05:33:57;;;;;;;8.88;6.85;;;3.10;99.90;;;;;;4989941;28;20278;-81
2023/03/08 05:36:31;;;;;;;8.73;6.38;;;3.10;99.90;;;;;;4990498;28;20726;-81
2023/03/08 05:38:58;;;;;;;8.30;6.68;;;3.10;99.90;;;;;;4973498;28;20713;-81
2023/03/08 05:41:31;;;;;;;7.18;5.43;;;3.10;99.90;;;;;;4974152;28;20199;-81
2023/03/08 05:44:00;;;;;;;7.72;5.40;;;3.10;99.90;;;;;;4989755;28;20270;-81
2023/03/08 05:46:29;;;;;;;10.02;6.07;;;3.10;99.90;;;;;;4975208;28;20265;-79
2023/03/08 05:48:55;;;;;;;12.47;7.93;;;3.10;99.90;;;;;;4991523;28;20290;-80
2023/03/08 05:51:22;;;;;;;7.85;6.05;;;3.10;99.90;;;;;;4975479;28;20590;-80
2023/03/08 05:53:48;;;;;;;7.80;5.90;;;3.10;99.90;;;;;;4992159;28;20236;-80
2023/03/08 05:56:21;;;;;;;8.30;6.25;;;3.10;99.90;;;;;;4975430;28;20589;-80
2023/03/08 05:59:02;;;;;;;7.55;5.38;;;3.10;99.90;;;;;;4991500;28;20197;-80
2023/03/08 06:01:28;;;;;;;9.13;6.85;;;3.10;99.90;;;;;;4990607;28;20283;-80
2023/03/08 06:04:01;;;;;;;10.50;7.15;;;3.10;99.90;;;;;;4991512;28;20531;-80
2023/03/08 06:06:31;;;;;;;11.10;6.68;;;3.10;99.90;;;;;;5011853;28;20253;-80
2023/03/08 06:09:00;;;;;;;7.05;6.00;;;3.10;99.90;;;;;;4974493;28;20221;-79
2023/03/08 06:11:28;;;;;;;10.35;6.72;;;3.10;99.90;;;;;;5025810;28;20185;-79
2023/03/08 06:13:56;;;;;;;8.20;6.30;;;3.10;99.90;;;;;;5028835;28;20567;-79
2023/03/08 06:16:25;;;;;;;10.18;7.60;;;3.10;99.90;;;;;;5046152;28;20189;-79
2023/03/08 06:18:51;;;;;;;8.33;6.57;;;3.10;99.90;;;;;;5029222;28;20592;-79
2023/03/08 06:21:20;;;;;;;7.60;6.03;;;3.10;99.90;;;;;;5016412;28;20191;-80
2023/03/08 06:23:49;;;;;;;8.43;7.50;;;3.10;99.90;;;;;;5006830;28;20606;-80
2023/03/08 06:26:15;;;;;;;9.40;6.30;;;3.10;99.90;;;;;;4976707;28;20175;-80
2023/03/08 06:28:44;;;;;;;9.32;7.00;;;3.10;99.90;;;;;;4990420;28;20167;-81
2023/03/08 06:31:14;;;;;;;9.98;7.15;;;3.10;99.90;;;;;;4975374;28;20175;-80
2023/03/08 06:33:39;;;;;;;9.55;5.93;;;3.10;99.90;;;;;;4993380;28;20310;-80
2023/03/08 06:36:07;;;;;;;8.10;5.68;;;3.10;99.90;;;;;;4994173;28;20179;-80
2023/03/08 06:38:35;;;;;;;6.13;4.28;;;3.10;99.90;;;;;;4997755;28;20183;-80
2023/03/08 06:41:04;;;;;;;5.35;3.78;;;3.10;99.90;;;;;;4999463;28;20246;-79
2023/03/08 06:43:30;;;;;;;5.55;3.80;;;3.10;99.90;;;;;;5002148;28;20206;-79
2023/03/08 06:45:57;;;;;;;7.43;5.00;;;3.20;99.90;;;;;;4999292;28;20166;-79
2023/03/08 06:48:22;;;;;;;8.20;5.27;;;3.10;99.90;;;;;;5006902;28;20175;-80
2023/03/08 06:50:51;;;;;;;5.90;4.22;;;3.10;99.90;;;;;;5030098;28;20619;-81
2023/03/08 06:53:16;;;;;;;8.90;6.32;;;3.20;99.90;;;;;;4996994;28;20170;-80
2023/03/08 06:55:53;;;;;;;6.43;4.78;;;3.10;99.90;;;;;;5014019;28;20174;-80
2023/03/08 06:58:19;;;;;;;7.70;5.07;;;3.10;99.90;;;;;;5031816;28;20181;-80
2023/03/08 07:00:45;;;;;;;8.05;5.63;;;3.20;99.90;;;;;;5012909;28;20637;-81
2023/03/08 07:03:12;;;;;;;6.67;5.03;;;3.20;99.90;;;;;;5024932;28;20170;-80
2023/03/08 07:05:38;;;;;;;6.53;5.00;;;3.10;99.90;;;;;;5025846;28;20601;-81
2023/03/08 07:08:04;;;;;;;5.93;4.43;;;3.10;99.90;;;;;;5001721;28;20503;-80
2023/03/08 07:10:30;;;;;;;5.30;4.35;;;3.10;99.90;;;;;;5013955;28;20195;-80
2023/03/08 07:12:56;;;;;;;7.50;4.53;;;3.10;99.90;;;;;;5007427;28;20662;-81
2023/03/08 07:15:23;;;;;;;6.87;4.80;;;3.10;99.90;;;;;;5022635;28;20178;-80
2023/03/08 07:17:50;;;;;;;3.80;3.20;;;3.20;99.90;;;;;;5007776;28;20562;-80
2023/03/08 07:20:19;;;;;;;4.85;3.58;;;3.20;99.90;;;;;;5034707;28;20186;-80
2023/03/08 07:22:45;;;;;;;4.80;3.80;;;3.20;99.90;;;;;;5013463;28;20618;-80
2023/03/08 07:25:16;;;;;;;5.90;3.63;;;3.20;99.90;;;;;;5014711;28;20171;-81
2023/03/08 07:27:42;;;;;;;4.78;3.60;;;3.20;99.90;;;;;;5017220;28;20170;-82
2023/03/08 07:30:10;;;;;;;5.25;4.72;;;3.30;99.90;;;;;;4998780;28;20193;-81
2023/03/08 07:32:38;;;;;;;5.05;3.38;;;3.30;99.90;;;;;;5013037;28;20178;-80
2023/03/08 07:35:05;;;;;;;4.97;4.38;;;3.30;99.90;;;;;;5013500;28;20654;-80
2023/03/08 07:37:31;;;;;;;6.00;4.85;;;3.30;99.90;;;;;;5012041;28;20178;-80
2023/03/08 07:39:57;;;;;;;7.63;4.37;;;3.30;99.90;;;;;;4995443;28;20201;-80
2023/03/08 07:42:23;;;;;;;4.50;4.10;;;3.30;99.90;;;;;;5010812;28;20690;-80
2023/03/08 07:44:54;;;;;;;4.93;3.90;;;3.40;99.90;;;;;;4996640;28;20194;-80
2023/03/08 07:47:20;;;;;;;5.13;4.47;;;3.40;99.90;;;;;;4993186;28;20171;-80
2023/03/08 07:49:46;;;;;;;6.60;5.05;;;3.40;99.90;;;;;;5012878;28;20194;-81
2023/03/08 07:52:12;;;;;;;5.90;4.40;;;3.40;99.90;;;;;;5012484;28;20178;-81
2023/03/08 07:54:38;;;;;;;6.30;5.03;;;3.40;99.90;;;;;;5019879;28;20596;-81
2023/03/08 07:57:04;;;;;;;6.40;4.63;;;3.50;99.90;;;;;;5007623;28;20661;-82
2023/03/08 07:59:30;;;;;;;4.65;4.07;;;3.50;99.90;;;;;;5019911;28;20205;-82
2023/03/08 08:01:55;;;;;;;6.27;5.37;;;3.50;99.90;;;;;;5024106;28;20204;-81
2023/03/08 08:04:22;;;;;;;6.53;5.43;;;3.50;99.90;;;;;;5047027;28;20573;-82
2023/03/08 08:06:48;;;;;;;7.47;5.18;;;3.50;99.90;;;;;;5032443;28;20166;-81
2023/03/08 08:09:16;;;;;;;7.30;5.85;;;3.50;99.90;;;;;;5030763;28;20197;-81
2023/03/08 08:11:42;;;;;;;7.43;6.57;;;3.50;99.90;;;;;;5015128;28;20197;-82
2023/03/08 08:14:07;;;;;;;6.70;5.10;;;3.50;99.90;;;;;;5027443;28;20197;-82
2023/03/08 08:16:33;;;;;;;7.87;6.40;;;3.60;99.90;;;;;;5012106;28;21223;-82
2023/03/08 08:18:59;;;;;;;5.53;4.73;;;3.60;99.90;;;;;;5003222;28;20240;-81
2023/03/08 08:21:25;;;;;;;7.13;5.30;;;3.60;99.90;;;;;;5010472;28;20633;-81
2023/03/08 08:23:52;;;;;;;5.73;5.13;;;3.60;99.90;;;;;;5011088;28;20585;-81
2023/03/08 08:26:19;;;;;;;8.52;5.50;;;3.60;99.90;;;;;;5011992;28;20616;-81
2023/03/08 08:28:48;;;;;;;7.75;5.85;;;3.60;99.90;;;;;;5011300;28;20261;-80
2023/03/08 08:31:17;;;;;;;6.13;5.25;;;3.60;99.90;;;;;;5012336;28;20261;-80
2023/03/08 08:33:43;;;;;;;5.72;4.95;;;3.70;99.90;;;;;;5014898;28;20213;-81
2023/03/08 08:36:12;;;;;;;6.30;5.70;;;3.60;99.90;;;;;;5015941;28;20174;-82
2023/03/08 08:38:39;;;;;;;6.00;5.40;;;3.70;99.90;;;;;;5012666;28;20261;-81
2023/03/08 08:41:06;;;;;;;9.55;8.25;;;3.70;99.90;;;;;;5011324;28;20685;-81
2023/03/08 08:43:34;;;;;;;8.20;6.47;;;3.80;99.90;;;;;;5012334;28;20178;-81
2023/03/08 08:46:01;;;;;;;6.68;5.97;;;3.70;99.90;;;;;;5013078;28;20170;-81
2023/03/08 08:48:27;;;;;;;7.55;6.45;;;3.80;99.90;;;;;;5010270;28;20265;-81
2023/03/08 08:50:54;;;;;;;7.45;6.07;;;3.80;99.90;;;;;;5027787;28;20182;-81
2023/03/08 08:53:20;;;;;;;7.80;6.63;;;3.80;99.90;;;;;;5014591;28;20181;-81
2023/03/08 08:55:46;;;;;;;7.32;5.95;;;3.90;99.90;;;;;;5010955;28;20178;-80
2023/03/08 08:58:12;;;;;;;6.07;5.33;;;3.90;99.90;;;;;;5008645;28;20189;-81
2023/03/08 09:00:38;;;;;;;7.05;6.10;;;3.90;99.90;;;;;;5027298;28;20723;-81
2023/03/08 09:03:04;;;;;;;7.23;6.50;;;3.90;99.90;;;;;;4997264;28;20639;-81
2023/03/08 09:05:30;;;;;;;10.88;7.95;;;4.00;99.90;;;;;;5019245;28;20585;-81
2023/03/08 09:07:58;;;;;;;10.15;8.05;;;4.10;99.90;;;;;;5012008;28;20533;-80
2023/03/08 09:10:26;;;;;;;10.75;7.45;;;4.10;99.90;;;;;;5011010;28;20197;-80
2023/03/08 09:12:51;;;;;;;7.25;6.03;;;4.20;99.90;;;;;;5000304;28;20179;-80
2023/03/08 09:15:17;;;;;;;7.17;6.10;;;4.20;99.90;;;;;;5001634;28;20603;-80
2023/03/08 09:17:43;;;;;;;11.18;7.75;;;4.20;99.90;;;;;;5022619;28;20228;-80
2023/03/08 09:20:09;;;;;;;8.83;6.90;;;4.20;99.90;;;;;;5010015;28;20202;-79
2023/03/08 09:22:36;;;;;;;9.07;7.30;;;4.30;99.90;;;;;;5010605;28;20226;-80
2023/03/08 09:25:02;;;;;;;9.82;7.90;;;4.30;99.90;;;;;;5010151;28;20182;-80
2023/03/08 09:27:28;;;;;;;9.35;7.47;;;4.30;99.90;;;;;;5011213;28;20170;-80
2023/03/08 09:29:53;;;;;;;8.30;6.00;;;4.30;99.90;;;;;;5010297;28;20330;-80
2023/03/08 09:32:19;;;;;;;9.00;7.57;;;4.40;99.90;;;;;;5025735;28;20189;-80
2023/03/08 09:34:46;;;;;;;8.50;7.00;;;4.40;99.90;;;;;;5009265;28;20186;-80
2023/03/08 09:37:12;;;;;;;8.13;7.18;;;4.40;99.90;;;;;;5017118;28;20181;-81
2023/03/08 09:39:39;;;;;;;10.55;8.13;;;4.40;99.90;;;;;;5013062;28;20630;-80
2023/03/08 09:42:13;;;;;;;8.90;7.70;;;4.40;99.90;;;;;;5013035;28;20324;-80
2023/03/08 09:44:58;;;;;;;10.55;9.10;;;4.50;99.90;;;;;;5029356;28;20177;-80
2023/03/08 09:47:58;;;;;;;9.77;7.60;;;4.50;99.90;;;;;;5029830;28;20174;-80
2023/03/08 09:50:30;;;;;;;8.93;7.20;;;4.60;99.90;;;;;;5014368;28;20236;-80
2023/03/08 09:53:33;;;;;;;9.27;7.95;;;4.70;99.90;;;;;;5030509;28;20177;-80
2023/03/08 09:56:04;;;;;;;10.07;7.70;;;4.70;99.90;;;;;;5004396;28;20181;-80
2023/03/08 09:58:50;;;;;;;10.30;7.10;;;4.80;99.90;;;;;;5013150;28;20177;-80
2023/03/08 10:01:37;;;;;;;6.32;5.53;;;4.80;99.90;;;;;;5028970;28;20208;-79
2023/03/08 10:04:12;;;;;;;8.50;6.85;;;4.80;99.90;;;;;;5030801;28;20508;-79
2023/03/08 10:06:46;;;;;;;9.45;7.60;;;4.80;99.90;;;;;;5031392;28;20177;-79
2023/03/08 10:09:36;;;;;;;8.52;7.80;;;4.80;99.90;;;;;;5034715;28;20192;-80
2023/03/08 10:12:38;;;;;;;8.40;7.10;;;4.70;99.90;;;;;;5033328;28;20209;-80
2023/03/08 10:15:20;;;;;;;10.23;7.68;;;4.70;99.90;;;;;;5015003;28;20243;-79
2023/03/08 10:17:58;;;;;;;7.60;5.90;;;4.70;99.90;;;;;;5014720;28;20181;-79
2023/03/08 10:20:28;;;;;;;8.35;7.45;;;4.60;99.90;;;;;;5014791;28;20213;-79
2023/03/08 10:23:14;;;;;;;7.38;5.82;;;4.60;99.90;;;;;;5012536;28;20281;-80
2023/03/08 10:25:40;;;;;;;9.48;7.35;;;4.60;99.90;;;;;;5019670;28;20193;-79
2023/03/08 10:28:26;;;;;;;11.80;7.20;;;4.60;99.90;;;;;;5014427;28;20167;-79
2023/03/08 10:31:03;;;;;;;10.25;7.20;;;4.70;99.90;;;;;;5013458;28;20636;-80
2023/03/08 10:33:34;;;;;;;9.30;7.30;;;4.70;99.90;;;;;;5013865;28;20197;-80
2023/03/08 10:36:16;;;;;;;10.43;8.68;;;4.80;99.90;;;;;;5014455;28;20170;-80
2023/03/08 10:38:42;;;;;;;7.22;6.28;;;4.80;99.90;;;;;;5012344;28;20170;-80
2023/03/08 10:41:16;;;;;;;13.07;10.77;;;4.90;99.90;;;;;;5029628;28;20234;-80
2023/03/08 10:43:46;;;;;;;9.15;7.65;;;4.90;99.90;;;;;;5020077;28;20899;-79
2023/03/08 10:46:16;;;;;;;9.18;7.13;;;4.90;99.90;;;;;;5013319;28;20174;-80
2023/03/08 10:48:42;;;;;;;9.15;7.43;;;4.90;99.90;;;;;;5012948;28;20167;-79
2023/03/08 10:51:26;;;;;;;10.60;8.77;;;5.00;99.90;;;;;;5018926;28;20177;-79
2023/03/08 10:54:03;;;;;;;9.05;6.57;;;5.10;99.90;;;;;;5024195;28;20236;-80
2023/03/08 10:56:45;;;;;;;9.23;7.47;;;5.10;99.90;;;;;;5032289;28;20205;-81
2023/03/08 10:59:31;;;;;;;9.88;7.93;;;5.30;99.90;;;;;;5032622;28;20197;-78
2023/03/08 11:02:12;;;;;;;13.73;10.75;;;5.30;99.90;;;;;;5032945;28;20231;-79
2023/03/08 11:04:37;;;;;;;10.93;8.43;;;5.30;99.90;;;;;;5032863;28;20205;-79
2023/03/08 11:07:23;;;;;;;10.60;8.50;;;5.40;99.90;;;;;;5033431;28;20200;-79
2023/03/08 11:09:49;;;;;;;9.02;7.05;;;5.40;99.90;;;;;;5032558;28;20612;-78
2023/03/08 11:12:23;;;;;;;8.18;6.75;;;5.40;99.90;;;;;;5032889;28;20173;-79
2023/03/08 11:14:50;;;;;;;9.80;8.32;;;5.50;99.90;;;;;;5033627;28;20194;-79
2023/03/08 11:17:38;;;;;;;9.10;7.50;;;5.60;99.90;;;;;;5031441;28;20174;-79
2023/03/08 11:20:27;;;;;;;13.10;10.20;;;5.60;99.90;;;;;;5032046;28;20624;-78
2023/03/08 11:23:30;;;;;;;9.55;8.55;;;5.60;99.90;;;;;;4999555;28;20218;-79
2023/03/08 11:26:16;;;;;;;12.63;10.75;;;5.70;99.90;;;;;;4994123;28;20182;-79
2023/03/08 11:29:13;;;;;;;10.07;8.60;;;5.70;99.90;;;;;;4992255;28;20182;-79
2023/03/08 11:32:03;;;;;;;8.90;8.00;;;5.80;99.90;;;;;;5008582;28;20163;-79
2023/03/08 11:34:37;;;;;;;11.25;9.15;;;5.80;99.90;;;;;;5008503;28;20175;-79
2023/03/08 11:37:19;;;;;;;9.60;8.60;;;5.90;99.90;;;;;;4993876;28;20193;-79
2023/03/08 11:40:24;;;;;;;10.55;9.27;;;6.00;99.90;;;;;;4997855;28;20210;-78
2023/03/08 11:43:07;;;;;;;11.32;7.60;;;6.00;99.90;;;;;;4964037;28;20234;-79
2023/03/08 11:45:47;;;;;;;8.75;7.57;;;6.00;99.90;;;;;;4993266;28;20175;-79
2023/03/08 11:48:22;;;;;;;7.05;6.35;;;6.10;99.90;;;;;;5012319;28;20194;-80
2023/03/08 11:51:31;;;;;;;7.78;6.97;;;6.10;99.90;;;;;;4997198;28;20221;-80
2023/03/08 11:54:21;;;;;;;7.70;6.93;;;6.20;99.90;;;;;;5013068;28;20186;-80
2023/03/08 11:56:53;;;;;;;7.30;6.50;;;6.30;99.90;;;;;;5012650;28;20201;-80
2023/03/08 11:59:30;;;;;;;7.40;6.68;;;6.30;99.90;;;;;;5012807;28;20600;-80
2023/03/08 12:02:05;;;;;;;7.80;7.00;;;6.50;99.90;;;;;;5010694;28;20212;-80
2023/03/08 12:04:39;;;;;;;7.30;6.32;;;6.60;99.90;;;;;;5011425;28;20174;-80
2023/03/08 12:07:16;;;;;;;8.27;7.47;;;6.70;99.90;;;;;;5012593;28;20177;-80
2023/03/08 12:10:07;;;;;;;9.55;8.60;;;6.80;99.90;;;;;;5012516;28;20244;-80
2023/03/08 12:12:47;;;;;;;9.50;8.32;;;6.80;99.90;;;;;;5012551;28;20209;-80
2023/03/08 12:15:47;;;;;;;7.80;7.00;;;6.70;99.90;;;;;;5012552;28;20269;-81
2023/03/08 12:18:19;;;;;;;8.15;6.47;;;6.70;99.90;;;;;;5011366;28;20769;-81
2023/03/08 12:20:46;;;;;;;10.85;9.60;;;6.70;99.90;;;;;;5012920;28;20194;-81
2023/03/08 12:23:17;;;;;;;8.10;7.30;;;6.60;99.90;;;;;;5011732;28;20534;-81
2023/03/08 12:25:47;;;;;;;7.15;6.45;;;6.70;99.90;;;;;;5011923;28;20182;-81
2023/03/08 12:28:25;;;;;;;8.85;7.10;;;6.80;99.90;;;;;;5012120;28;20193;-81
2023/03/08 12:31:31;;;;;;;10.10;9.00;;;6.80;99.90;;;;;;5010826;28;20725;-81
2023/03/08 12:33:58;;;;;;;7.97;7.15;;;6.80;99.90;;;;;;5008767;28;20186;-82
2023/03/08 12:36:38;;;;;;;7.38;6.57;;;6.80;99.90;;;;;;5013787;28;20167;-82
2023/03/08 12:39:07;;;;;;;6.78;6.18;;;6.80;99.90;;;;;;5012919;28;20198;-82
2023/03/08 12:41:33;;;;;;;7.38;6.28;;;6.90;99.90;;;;;;5012117;28;20305;-82
2023/03/08 12:44:02;;;;;;;8.30;6.37;;;6.90;99.90;;;;;;5012077;28;20171;-82
2023/03/08 12:46:42;;;;;;;9.02;8.13;;;6.90;99.90;;;;;;5023831;28;20180;-81
2023/03/08 12:49:26;;;;;;;7.32;6.63;;;7.00;99.90;;;;;;5032182;28;20283;-82
2023/03/08 12:52:03;;;;;;;7.75;6.95;;;7.00;99.90;;;;;;5030150;28;20260;-82
2023/03/08 12:54:33;;;;;;;7.57;6.55;;;7.00;99.90;;;;;;5020525;28;20269;-81
2023/03/08 12:57:00;;;;;;;7.05;5.05;;;7.10;99.90;;;;;;5033641;28;20173;-82
2023/03/08 12:59:38;;;;;;;7.53;6.40;;;7.20;99.90;;;;;;5036638;28;20196;-81
2023/03/08 13:02:31;;;;;;;7.43;6.18;;;7.40;99.90;;;;;;5038825;28;20197;-82
2023/03/08 13:05:29;;;;;;;6.50;5.90;;;7.40;99.90;;;;;;5013019;28;20190;-80
2023/03/08 13:08:14;;;;;;;5.60;5.05;;;7.50;99.90;;;;;;5022677;28;20923;-81
2023/03/08 13:10:53;;;;;;;7.55;6.05;;;7.60;99.90;;;;;;5038605;28;20665;-82
2023/03/08 13:13:37;;;;;;;6.60;5.90;;;7.60;99.90;;;;;;5031893;28;20231;-82